sensor_id;sensor_type;location;lat;lon;timestamp;noise_LAeq;noise_LA_min;noise_LA_max;noise_LA01;noise_LA95
69613;Laerm;56819;52.382;4.758;2022-07-29T00:00:04;42.54;39.49;45.47;;
69613;Laerm;56819;52.382;4.758;2022-07-29T00:00:15;46.05;41.63;53.46;;
69613;Laerm;56819;52.382;4.758;2022-07-29T00:00:25;53.66;39.66;60.17;;
69613;Laerm;56819;52.382;4.758;2022-07-29T00:00:35;48.66;37.61;57.59;;
69613;Laerm;56819;52.382;4.758;2022-07-29T00:00:46;44.56;38.60;49.59;;
69613;Laerm;56819;52.382;4.758;2022-07-29T00:00:56;45.00;39.96;49.42;;
69613;Laerm;56819;52.382;4.758;2022-07-29T00:01:06;41.61;37.09;46.91;;
69613;Laerm;56819;52.382;4.758;2022-07-29T00:01:17;38.24;35.94;40.42;;
69613;Laerm;56819;52.382;4.758;2022-07-29T00:01:27;37.09;34.80;39.02;;
69613;Laerm;56819;52.382;4.758;2022-07-29T00:01:37;36.83;34.80;42.23;;
69613;Laerm;56819;52.382;4.758;2022-07-29T00:01:47;39.00;35.36;43.56;;
69613;Laerm;56819;52.382;4.758;2022-07-29T00:01:58;42.28;39.34;45.20;;
69613;Laerm;56819;52.382;4.758;2022-07-29T00:02:08;40.33;37.62;44.74;;
69613;Laerm;56819;52.382;4.758;2022-07-29T00:02:19;39.08;37.28;41.37;;
69613;Laerm;56819;52.382;4.758;2022-07-29T00:02:29;39.97;36.83;43.73;;
69613;Laerm;56819;52.382;4.758;2022-07-29T00:02:39;42.18;39.00;45.37;;
69613;Laerm;56819;52.382;4.758;2022-07-29T00:02:49;40.75;37.38;45.41;;
69613;Laerm;56819;52.382;4.758;2022-07-29T00:02:59;40.47;36.95;45.18;;
69613;Laerm;56819;52.382;4.758;2022-07-29T00:03:10;41.66;38.19;46.35;;
69613;Laerm;56819;52.382;4.758;2022-07-29T00:03:21;40.22;38.01;43.30;;
69613;Laerm;56819;52.382;4.758;2022-07-29T00:03:31;40.38;36.45;47.80;;
69613;Laerm;56819;52.382;4.758;2022-07-29T00:03:41;38.21;34.80;41.91;;
69613;Laerm;56819;52.382;4.758;2022-07-29T00:03:51;38.99;35.86;43.22;;
69613;Laerm;56819;52.382;4.758;2022-07-29T00:04:01;37.56;34.54;40.85;;
69613;Laerm;56819;52.382;4.758;2022-07-29T00:04:12;36.43;34.55;38.44;;
69613;Laerm;56819;52.382;4.758;2022-07-29T00:04:22;37.07;34.70;39.91;;
69613;Laerm;56819;52.382;4.758;2022-07-29T00:04:35;38.22;36.15;41.49;;
69613;Laerm;56819;52.382;4.758;2022-07-29T00:04:45;39.13;35.72;41.68;;
69613;Laerm;56819;52.382;4.758;2022-07-29T00:04:55;39.35;36.37;41.66;;
69613;Laerm;56819;52.382;4.758;2022-07-29T00:05:06;39.72;37.32;43.10;;
69613;Laerm;56819;52.382;4.758;2022-07-29T00:05:17;39.60;36.71;42.61;;
69613;Laerm;56819;52.382;4.758;2022-07-29T00:05:28;42.35;37.69;45.73;;
69613;Laerm;56819;52.382;4.758;2022-07-29T00:05:39;37.82;36.03;40.34;;
69613;Laerm;56819;52.382;4.758;2022-07-29T00:05:49;37.98;35.78;42.82;;
69613;Laerm;56819;52.382;4.758;2022-07-29T00:05:59;43.78;36.57;48.41;;
69613;Laerm;56819;52.382;4.758;2022-07-29T00:06:10;42.10;38.35;44.98;;
69613;Laerm;56819;52.382;4.758;2022-07-29T00:06:20;39.52;36.75;41.97;;
69613;Laerm;56819;52.382;4.758;2022-07-29T00:06:30;38.52;35.39;40.56;;
69613;Laerm;56819;52.382;4.758;2022-07-29T00:06:41;39.61;36.85;43.46;;
69613;Laerm;56819;52.382;4.758;2022-07-29T00:06:51;39.27;36.35;42.82;;
69613;Laerm;56819;52.382;4.758;2022-07-29T00:07:02;39.61;36.48;43.69;;
69613;Laerm;56819;52.382;4.758;2022-07-29T00:07:12;40.15;35.98;46.40;;
69613;Laerm;56819;52.382;4.758;2022-07-29T00:07:22;38.36;36.63;40.07;;
69613;Laerm;56819;52.382;4.758;2022-07-29T00:07:33;38.41;36.26;40.38;;
69613;Laerm;56819;52.382;4.758;2022-07-29T00:07:43;38.23;36.21;40.33;;
69613;Laerm;56819;52.382;4.758;2022-07-29T00:07:53;38.84;35.87;45.09;;
69613;Laerm;56819;52.382;4.758;2022-07-29T00:08:03;38.52;35.47;42.37;;
69613;Laerm;56819;52.382;4.758;2022-07-29T00:08:13;37.91;35.25;40.42;;
69613;Laerm;56819;52.382;4.758;2022-07-29T00:08:25;37.79;35.30;40.93;;
69613;Laerm;56819;52.382;4.758;2022-07-29T00:08:35;38.35;35.79;40.40;;
69613;Laerm;56819;52.382;4.758;2022-07-29T00:08:45;37.80;35.16;41.28;;
69613;Laerm;56819;52.382;4.758;2022-07-29T00:08:55;38.98;36.00;42.65;;
69613;Laerm;56819;52.382;4.758;2022-07-29T00:09:06;38.23;35.58;41.17;;
69613;Laerm;56819;52.382;4.758;2022-07-29T00:09:16;37.46;34.93;40.01;;
69613;Laerm;56819;52.382;4.758;2022-07-29T00:09:26;39.25;36.26;44.34;;
69613;Laerm;56819;52.382;4.758;2022-07-29T00:09:37;39.55;36.48;50.07;;
69613;Laerm;56819;52.382;4.758;2022-07-29T00:09:47;41.39;38.20;45.65;;
69613;Laerm;56819;52.382;4.758;2022-07-29T00:09:57;41.95;37.79;44.50;;
69613;Laerm;56819;52.382;4.758;2022-07-29T00:10:07;45.90;36.99;50.90;;
69613;Laerm;56819;52.382;4.758;2022-07-29T00:10:18;39.32;36.51;45.34;;
69613;Laerm;56819;52.382;4.758;2022-07-29T00:10:28;38.82;36.45;42.99;;
69613;Laerm;56819;52.382;4.758;2022-07-29T00:10:38;39.06;36.13;42.82;;
69613;Laerm;56819;52.382;4.758;2022-07-29T00:10:49;38.50;35.83;40.93;;
69613;Laerm;56819;52.382;4.758;2022-07-29T00:10:59;37.48;34.65;39.95;;
69613;Laerm;56819;52.382;4.758;2022-07-29T00:11:09;36.99;34.51;40.36;;
69613;Laerm;56819;52.382;4.758;2022-07-29T00:11:19;36.67;34.24;45.38;;
69613;Laerm;56819;52.382;4.758;2022-07-29T00:11:30;37.64;34.57;41.10;;
69613;Laerm;56819;52.382;4.758;2022-07-29T00:11:40;36.88;34.33;40.57;;
69613;Laerm;56819;52.382;4.758;2022-07-29T00:11:50;38.03;35.18;43.11;;
69613;Laerm;56819;52.382;4.758;2022-07-29T00:12:00;38.61;35.85;42.26;;
69613;Laerm;56819;52.382;4.758;2022-07-29T00:12:11;41.18;38.38;45.49;;
69613;Laerm;56819;52.382;4.758;2022-07-29T00:12:21;39.69;37.49;42.93;;
69613;Laerm;56819;52.382;4.758;2022-07-29T00:12:32;40.09;37.66;42.99;;
69613;Laerm;56819;52.382;4.758;2022-07-29T00:12:42;39.37;37.07;41.05;;
69613;Laerm;56819;52.382;4.758;2022-07-29T00:12:52;38.82;36.66;41.02;;
69613;Laerm;56819;52.382;4.758;2022-07-29T00:13:02;39.30;37.21;41.27;;
69613;Laerm;56819;52.382;4.758;2022-07-29T00:13:13;39.41;35.79;44.16;;
69613;Laerm;56819;52.382;4.758;2022-07-29T00:13:23;37.62;34.92;41.60;;
69613;Laerm;56819;52.382;4.758;2022-07-29T00:13:33;37.20;34.73;39.27;;
69613;Laerm;56819;52.382;4.758;2022-07-29T00:13:44;36.46;34.10;38.56;;
69613;Laerm;56819;52.382;4.758;2022-07-29T00:13:54;36.18;34.49;37.76;;
69613;Laerm;56819;52.382;4.758;2022-07-29T00:14:04;36.66;34.16;40.54;;
69613;Laerm;56819;52.382;4.758;2022-07-29T00:14:14;36.67;34.70;39.09;;
69613;Laerm;56819;52.382;4.758;2022-07-29T00:14:25;36.56;34.24;39.49;;
69613;Laerm;56819;52.382;4.758;2022-07-29T00:14:35;38.39;35.60;41.09;;
69613;Laerm;56819;52.382;4.758;2022-07-29T00:14:45;38.83;36.89;42.62;;
69613;Laerm;56819;52.382;4.758;2022-07-29T00:14:55;38.52;35.51;50.02;;
69613;Laerm;56819;52.382;4.758;2022-07-29T00:15:06;37.30;34.71;44.06;;
69613;Laerm;56819;52.382;4.758;2022-07-29T00:15:17;37.63;35.39;40.80;;
69613;Laerm;56819;52.382;4.758;2022-07-29T00:15:27;37.05;34.74;40.32;;
69613;Laerm;56819;52.382;4.758;2022-07-29T00:15:37;37.34;34.86;39.93;;
69613;Laerm;56819;52.382;4.758;2022-07-29T00:15:47;36.16;33.69;38.73;;
69613;Laerm;56819;52.382;4.758;2022-07-29T00:15:58;36.33;34.03;38.50;;
69613;Laerm;56819;52.382;4.758;2022-07-29T00:16:08;37.02;34.44;41.23;;
69613;Laerm;56819;52.382;4.758;2022-07-29T00:16:18;36.83;34.35;39.26;;
69613;Laerm;56819;52.382;4.758;2022-07-29T00:16:28;43.54;35.73;48.78;;
69613;Laerm;56819;52.382;4.758;2022-07-29T00:16:39;41.70;37.96;46.45;;
69613;Laerm;56819;52.382;4.758;2022-07-29T00:16:49;38.83;36.17;40.93;;
69613;Laerm;56819;52.382;4.758;2022-07-29T00:16:59;38.77;36.61;41.04;;
69613;Laerm;56819;52.382;4.758;2022-07-29T00:17:09;38.34;36.44;40.01;;
69613;Laerm;56819;52.382;4.758;2022-07-29T00:17:20;38.85;36.65;41.50;;
69613;Laerm;56819;52.382;4.758;2022-07-29T00:17:30;38.83;36.37;41.20;;
69613;Laerm;56819;52.382;4.758;2022-07-29T00:17:40;38.81;36.28;43.25;;
69613;Laerm;56819;52.382;4.758;2022-07-29T00:17:50;38.31;35.72;43.32;;
69613;Laerm;56819;52.382;4.758;2022-07-29T00:18:00;38.71;35.38;47.11;;
69613;Laerm;56819;52.382;4.758;2022-07-29T00:18:11;38.08;35.32;40.39;;
69613;Laerm;56819;52.382;4.758;2022-07-29T00:18:21;41.85;37.18;50.74;;
69613;Laerm;56819;52.382;4.758;2022-07-29T00:18:31;44.80;39.51;49.99;;
69613;Laerm;56819;52.382;4.758;2022-07-29T00:18:42;46.40;42.75;50.50;;
69613;Laerm;56819;52.382;4.758;2022-07-29T00:18:52;47.91;43.35;52.56;;
69613;Laerm;56819;52.382;4.758;2022-07-29T00:19:02;43.53;38.26;50.43;;
69613;Laerm;56819;52.382;4.758;2022-07-29T00:19:12;40.65;37.54;43.33;;
69613;Laerm;56819;52.382;4.758;2022-07-29T00:19:23;38.45;36.12;40.96;;
69613;Laerm;56819;52.382;4.758;2022-07-29T00:19:33;38.26;35.50;40.57;;
69613;Laerm;56819;52.382;4.758;2022-07-29T00:19:44;38.62;36.30;41.03;;
69613;Laerm;56819;52.382;4.758;2022-07-29T00:19:54;38.97;36.23;41.38;;
69613;Laerm;56819;52.382;4.758;2022-07-29T00:20:04;38.56;35.80;40.77;;
69613;Laerm;56819;52.382;4.758;2022-07-29T00:20:15;38.91;36.32;40.76;;
69613;Laerm;56819;52.382;4.758;2022-07-29T00:20:25;38.36;36.30;41.73;;
69613;Laerm;56819;52.382;4.758;2022-07-29T00:20:35;38.79;35.93;41.04;;
69613;Laerm;56819;52.382;4.758;2022-07-29T00:20:45;40.98;36.40;44.90;;
69613;Laerm;56819;52.382;4.758;2022-07-29T00:20:55;45.15;40.88;48.17;;
69613;Laerm;56819;52.382;4.758;2022-07-29T00:21:06;36.36;34.13;43.63;;
69613;Laerm;56819;52.382;4.758;2022-07-29T00:21:16;35.89;34.03;38.28;;
69613;Laerm;56819;52.382;4.758;2022-07-29T00:21:26;36.24;34.15;38.21;;
69613;Laerm;56819;52.382;4.758;2022-07-29T00:21:36;36.30;34.51;38.81;;
69613;Laerm;56819;52.382;4.758;2022-07-29T00:21:46;37.10;34.81;39.58;;
69613;Laerm;56819;52.382;4.758;2022-07-29T00:21:57;38.62;36.35;41.61;;
69613;Laerm;56819;52.382;4.758;2022-07-29T00:22:07;43.09;38.08;47.33;;
69613;Laerm;56819;52.382;4.758;2022-07-29T00:22:17;43.88;35.60;49.42;;
69613;Laerm;56819;52.382;4.758;2022-07-29T00:22:28;36.15;33.73;39.16;;
69613;Laerm;56819;52.382;4.758;2022-07-29T00:22:38;35.74;33.72;37.20;;
69613;Laerm;56819;52.382;4.758;2022-07-29T00:22:48;36.54;33.75;38.63;;
69613;Laerm;56819;52.382;4.758;2022-07-29T00:22:59;37.02;35.11;38.88;;
69613;Laerm;56819;52.382;4.758;2022-07-29T00:23:09;37.50;35.32;39.75;;
69613;Laerm;56819;52.382;4.758;2022-07-29T00:23:19;38.52;36.56;41.53;;
69613;Laerm;56819;52.382;4.758;2022-07-29T00:23:29;37.39;34.94;40.10;;
69613;Laerm;56819;52.382;4.758;2022-07-29T00:23:40;36.47;34.57;38.29;;
69613;Laerm;56819;52.382;4.758;2022-07-29T00:23:50;37.43;34.88;41.25;;
69613;Laerm;56819;52.382;4.758;2022-07-29T00:24:00;37.68;34.80;40.80;;
69613;Laerm;56819;52.382;4.758;2022-07-29T00:24:10;37.14;34.68;41.79;;
69613;Laerm;56819;52.382;4.758;2022-07-29T00:24:20;36.86;33.81;40.72;;
69613;Laerm;56819;52.382;4.758;2022-07-29T00:24:31;35.24;33.59;37.60;;
69613;Laerm;56819;52.382;4.758;2022-07-29T00:24:41;35.26;33.35;37.92;;
69613;Laerm;56819;52.382;4.758;2022-07-29T00:24:51;34.98;33.09;36.45;;
69613;Laerm;56819;52.382;4.758;2022-07-29T00:25:01;34.94;33.11;40.44;;
69613;Laerm;56819;52.382;4.758;2022-07-29T00:25:12;35.20;33.40;36.94;;
69613;Laerm;56819;52.382;4.758;2022-07-29T00:25:24;36.08;33.85;38.25;;
69613;Laerm;56819;52.382;4.758;2022-07-29T00:25:35;35.96;33.52;38.75;;
69613;Laerm;56819;52.382;4.758;2022-07-29T00:25:47;36.94;33.62;40.18;;
69613;Laerm;56819;52.382;4.758;2022-07-29T00:25:58;38.63;34.89;42.56;;
69613;Laerm;56819;52.382;4.758;2022-07-29T00:26:08;38.98;36.57;41.60;;
69613;Laerm;56819;52.382;4.758;2022-07-29T00:26:18;43.30;36.52;53.41;;
69613;Laerm;56819;52.382;4.758;2022-07-29T00:26:29;41.80;36.49;50.00;;
69613;Laerm;56819;52.382;4.758;2022-07-29T00:26:41;42.73;36.50;50.77;;
69613;Laerm;56819;52.382;4.758;2022-07-29T00:26:51;39.06;36.06;41.98;;
69613;Laerm;56819;52.382;4.758;2022-07-29T00:27:02;41.38;38.47;45.32;;
69613;Laerm;56819;52.382;4.758;2022-07-29T00:27:12;44.57;40.28;50.05;;
69613;Laerm;56819;52.382;4.758;2022-07-29T00:27:22;41.61;38.09;45.74;;
69613;Laerm;56819;52.382;4.758;2022-07-29T00:27:32;39.61;35.95;46.29;;
69613;Laerm;56819;52.382;4.758;2022-07-29T00:27:43;37.11;35.00;39.20;;
69613;Laerm;56819;52.382;4.758;2022-07-29T00:27:53;38.40;34.68;50.83;;
69613;Laerm;56819;52.382;4.758;2022-07-29T00:28:03;36.84;35.05;39.85;;
69613;Laerm;56819;52.382;4.758;2022-07-29T00:28:13;36.58;34.61;39.89;;
69613;Laerm;56819;52.382;4.758;2022-07-29T00:28:24;37.92;35.44;41.60;;
69613;Laerm;56819;52.382;4.758;2022-07-29T00:28:34;37.46;34.83;40.80;;
69613;Laerm;56819;52.382;4.758;2022-07-29T00:28:44;37.36;34.62;41.74;;
69613;Laerm;56819;52.382;4.758;2022-07-29T00:28:54;38.32;35.50;40.95;;
69613;Laerm;56819;52.382;4.758;2022-07-29T00:29:04;37.48;35.30;39.24;;
69613;Laerm;56819;52.382;4.758;2022-07-29T00:29:15;39.55;36.26;49.21;;
69613;Laerm;56819;52.382;4.758;2022-07-29T00:29:25;37.57;35.24;41.18;;
69613;Laerm;56819;52.382;4.758;2022-07-29T00:29:35;37.94;35.54;42.20;;
69613;Laerm;56819;52.382;4.758;2022-07-29T00:29:45;36.71;34.61;38.93;;
69613;Laerm;56819;52.382;4.758;2022-07-29T00:29:56;36.34;34.68;37.97;;
69613;Laerm;56819;52.382;4.758;2022-07-29T00:30:06;36.75;34.58;41.73;;
69613;Laerm;56819;52.382;4.758;2022-07-29T00:30:16;35.43;33.23;37.90;;
69613;Laerm;56819;52.382;4.758;2022-07-29T00:30:27;35.80;33.57;39.59;;
69613;Laerm;56819;52.382;4.758;2022-07-29T00:30:39;35.40;32.98;37.38;;
69613;Laerm;56819;52.382;4.758;2022-07-29T00:30:53;35.19;33.28;36.88;;
69613;Laerm;56819;52.382;4.758;2022-07-29T00:31:06;35.26;33.07;39.40;;
69613;Laerm;56819;52.382;4.758;2022-07-29T00:31:19;35.73;33.61;38.77;;
69613;Laerm;56819;52.382;4.758;2022-07-29T00:31:29;36.76;34.56;38.82;;
69613;Laerm;56819;52.382;4.758;2022-07-29T00:31:39;37.94;34.99;49.18;;
69613;Laerm;56819;52.382;4.758;2022-07-29T00:31:51;38.78;35.79;45.44;;
69613;Laerm;56819;52.382;4.758;2022-07-29T00:32:03;38.05;35.54;45.62;;
69613;Laerm;56819;52.382;4.758;2022-07-29T00:32:13;37.71;35.00;49.82;;
69613;Laerm;56819;52.382;4.758;2022-07-29T00:32:25;39.87;36.74;43.42;;
69613;Laerm;56819;52.382;4.758;2022-07-29T00:32:35;42.02;34.38;50.11;;
69613;Laerm;56819;52.382;4.758;2022-07-29T00:32:47;36.49;33.84;38.35;;
69613;Laerm;56819;52.382;4.758;2022-07-29T00:32:58;35.24;33.39;38.84;;
69613;Laerm;56819;52.382;4.758;2022-07-29T00:33:09;36.38;34.04;47.17;;
69613;Laerm;56819;52.382;4.758;2022-07-29T00:33:19;40.89;34.04;57.05;;
69613;Laerm;56819;52.382;4.758;2022-07-29T00:33:32;49.09;34.92;70.71;;
69613;Laerm;56819;52.382;4.758;2022-07-29T00:33:42;39.19;35.03;41.80;;
69613;Laerm;56819;52.382;4.758;2022-07-29T00:33:54;37.23;34.76;40.69;;
69613;Laerm;56819;52.382;4.758;2022-07-29T00:34:04;37.53;35.00;42.20;;
69613;Laerm;56819;52.382;4.758;2022-07-29T00:34:17;36.60;33.80;38.68;;
69613;Laerm;56819;52.382;4.758;2022-07-29T00:34:47;37.31;34.37;39.96;;
69613;Laerm;56819;52.382;4.758;2022-07-29T00:35:17;40.36;35.79;46.48;;
69613;Laerm;56819;52.382;4.758;2022-07-29T00:35:46;40.98;35.80;48.02;;
69613;Laerm;56819;52.382;4.758;2022-07-29T00:35:58;37.16;34.73;40.97;;
69613;Laerm;56819;52.382;4.758;2022-07-29T00:36:10;36.68;34.74;40.90;;
69613;Laerm;56819;52.382;4.758;2022-07-29T00:36:21;36.36;34.42;38.66;;
69613;Laerm;56819;52.382;4.758;2022-07-29T00:36:33;37.19;34.72;42.55;;
69613;Laerm;56819;52.382;4.758;2022-07-29T00:36:43;37.34;35.39;41.55;;
69613;Laerm;56819;52.382;4.758;2022-07-29T00:36:55;37.35;35.08;39.36;;
69613;Laerm;56819;52.382;4.758;2022-07-29T00:37:05;37.77;35.66;40.39;;
69613;Laerm;56819;52.382;4.758;2022-07-29T00:37:15;38.35;36.03;41.56;;
69613;Laerm;56819;52.382;4.758;2022-07-29T00:37:26;39.41;37.46;42.52;;
69613;Laerm;56819;52.382;4.758;2022-07-29T00:37:37;44.81;40.21;49.20;;
69613;Laerm;56819;52.382;4.758;2022-07-29T00:37:48;43.31;37.21;49.55;;
69613;Laerm;56819;52.382;4.758;2022-07-29T00:37:59;44.04;37.82;50.55;;
69613;Laerm;56819;52.382;4.758;2022-07-29T00:38:13;43.50;33.46;51.40;;
69613;Laerm;56819;52.382;4.758;2022-07-29T00:38:23;36.50;34.11;39.70;;
69613;Laerm;56819;52.382;4.758;2022-07-29T00:38:35;37.22;35.01;39.55;;
69613;Laerm;56819;52.382;4.758;2022-07-29T00:38:45;36.81;34.37;40.41;;
69613;Laerm;56819;52.382;4.758;2022-07-29T00:38:57;39.75;34.50;47.87;;
69613;Laerm;56819;52.382;4.758;2022-07-29T00:39:08;40.04;36.87;42.61;;
69613;Laerm;56819;52.382;4.758;2022-07-29T00:39:18;38.12;34.92;41.78;;
69613;Laerm;56819;52.382;4.758;2022-07-29T00:39:29;36.87;33.72;39.74;;
69613;Laerm;56819;52.382;4.758;2022-07-29T00:39:40;36.76;34.38;43.49;;
69613;Laerm;56819;52.382;4.758;2022-07-29T00:39:51;36.19;33.71;38.43;;
69613;Laerm;56819;52.382;4.758;2022-07-29T00:40:02;36.63;34.46;42.46;;
69613;Laerm;56819;52.382;4.758;2022-07-29T00:40:15;36.47;34.40;39.64;;
69613;Laerm;56819;52.382;4.758;2022-07-29T00:40:25;37.06;34.61;41.35;;
69613;Laerm;56819;52.382;4.758;2022-07-29T00:40:35;37.16;34.87;40.67;;
69613;Laerm;56819;52.382;4.758;2022-07-29T00:40:46;37.57;34.55;41.15;;
69613;Laerm;56819;52.382;4.758;2022-07-29T00:40:57;36.93;34.62;40.76;;
69613;Laerm;56819;52.382;4.758;2022-07-29T00:41:08;37.73;35.52;40.59;;
69613;Laerm;56819;52.382;4.758;2022-07-29T00:41:19;38.56;35.61;44.79;;
69613;Laerm;56819;52.382;4.758;2022-07-29T00:41:29;38.55;36.31;40.79;;
69613;Laerm;56819;52.382;4.758;2022-07-29T00:41:40;38.07;35.39;42.72;;
69613;Laerm;56819;52.382;4.758;2022-07-29T00:41:51;37.62;35.40;40.20;;
69613;Laerm;56819;52.382;4.758;2022-07-29T00:42:02;37.68;35.58;40.10;;
69613;Laerm;56819;52.382;4.758;2022-07-29T00:42:14;37.53;34.90;40.60;;
69613;Laerm;56819;52.382;4.758;2022-07-29T00:42:24;36.81;35.17;38.34;;
69613;Laerm;56819;52.382;4.758;2022-07-29T00:42:45;37.40;34.94;40.06;;
69613;Laerm;56819;52.382;4.758;2022-07-29T00:42:56;36.65;34.26;38.73;;
69613;Laerm;56819;52.382;4.758;2022-07-29T00:43:06;36.95;35.21;39.75;;
69613;Laerm;56819;52.382;4.758;2022-07-29T00:43:17;37.76;35.49;48.94;;
69613;Laerm;56819;52.382;4.758;2022-07-29T00:43:28;38.33;35.71;42.12;;
69613;Laerm;56819;52.382;4.758;2022-07-29T00:43:38;37.92;35.69;40.88;;
69613;Laerm;56819;52.382;4.758;2022-07-29T00:43:50;38.29;36.26;40.07;;
69613;Laerm;56819;52.382;4.758;2022-07-29T00:44:01;38.64;36.22;40.75;;
69613;Laerm;56819;52.382;4.758;2022-07-29T00:44:13;38.43;36.03;40.68;;
69613;Laerm;56819;52.382;4.758;2022-07-29T00:44:24;37.28;35.22;40.71;;
69613;Laerm;56819;52.382;4.758;2022-07-29T00:44:40;36.80;34.26;38.92;;
69613;Laerm;56819;52.382;4.758;2022-07-29T00:44:51;36.13;33.94;38.89;;
69613;Laerm;56819;52.382;4.758;2022-07-29T00:45:03;35.76;33.20;38.35;;
69613;Laerm;56819;52.382;4.758;2022-07-29T00:45:15;35.94;33.42;38.72;;
69613;Laerm;56819;52.382;4.758;2022-07-29T00:45:25;37.23;33.82;40.68;;
69613;Laerm;56819;52.382;4.758;2022-07-29T00:45:35;36.71;33.77;39.67;;
69613;Laerm;56819;52.382;4.758;2022-07-29T00:45:47;38.30;35.31;43.50;;
69613;Laerm;56819;52.382;4.758;2022-07-29T00:45:57;40.61;36.23;45.86;;
69613;Laerm;56819;52.382;4.758;2022-07-29T00:46:08;43.07;37.74;48.11;;
69613;Laerm;56819;52.382;4.758;2022-07-29T00:46:18;40.19;35.75;46.29;;
69613;Laerm;56819;52.382;4.758;2022-07-29T00:46:29;37.28;34.48;39.29;;
69613;Laerm;56819;52.382;4.758;2022-07-29T00:46:39;41.80;35.10;47.69;;
69613;Laerm;56819;52.382;4.758;2022-07-29T00:46:50;42.03;37.65;46.87;;
69613;Laerm;56819;52.382;4.758;2022-07-29T00:47:00;38.56;36.11;42.71;;
69613;Laerm;56819;52.382;4.758;2022-07-29T00:47:11;38.74;35.56;42.11;;
69613;Laerm;56819;52.382;4.758;2022-07-29T00:47:21;37.09;34.89;39.39;;
69613;Laerm;56819;52.382;4.758;2022-07-29T00:47:33;36.38;34.44;38.71;;
69613;Laerm;56819;52.382;4.758;2022-07-29T00:47:44;36.45;34.52;38.60;;
69613;Laerm;56819;52.382;4.758;2022-07-29T00:47:56;36.05;33.85;41.95;;
69613;Laerm;56819;52.382;4.758;2022-07-29T00:48:06;36.05;34.09;37.64;;
69613;Laerm;56819;52.382;4.758;2022-07-29T00:48:20;35.96;34.19;38.61;;
69613;Laerm;56819;52.382;4.758;2022-07-29T00:48:30;36.32;33.29;39.22;;
69613;Laerm;56819;52.382;4.758;2022-07-29T00:48:41;37.78;35.91;39.91;;
69613;Laerm;56819;52.382;4.758;2022-07-29T00:48:53;38.32;36.35;40.61;;
69613;Laerm;56819;52.382;4.758;2022-07-29T00:49:04;36.75;34.27;39.85;;
69613;Laerm;56819;52.382;4.758;2022-07-29T00:49:16;36.90;34.45;39.94;;
69613;Laerm;56819;52.382;4.758;2022-07-29T00:49:28;37.28;35.02;39.48;;
69613;Laerm;56819;52.382;4.758;2022-07-29T00:49:40;37.10;34.90;39.31;;
69613;Laerm;56819;52.382;4.758;2022-07-29T00:49:51;36.75;34.47;39.36;;
69613;Laerm;56819;52.382;4.758;2022-07-29T00:50:03;36.26;34.41;38.49;;
69613;Laerm;56819;52.382;4.758;2022-07-29T00:50:14;36.43;33.68;38.64;;
69613;Laerm;56819;52.382;4.758;2022-07-29T00:50:24;36.19;33.79;38.26;;
69613;Laerm;56819;52.382;4.758;2022-07-29T00:50:36;36.88;34.05;39.49;;
69613;Laerm;56819;52.382;4.758;2022-07-29T00:50:48;37.13;34.43;41.27;;
69613;Laerm;56819;52.382;4.758;2022-07-29T00:51:01;37.76;35.10;40.69;;
69613;Laerm;56819;52.382;4.758;2022-07-29T00:51:16;39.44;35.09;44.60;;
69613;Laerm;56819;52.382;4.758;2022-07-29T00:51:26;37.89;35.45;42.58;;
69613;Laerm;56819;52.382;4.758;2022-07-29T00:51:38;38.45;35.78;42.17;;
69613;Laerm;56819;52.382;4.758;2022-07-29T00:51:50;36.61;34.33;38.71;;
69613;Laerm;56819;52.382;4.758;2022-07-29T00:52:02;36.83;34.05;39.39;;
69613;Laerm;56819;52.382;4.758;2022-07-29T00:52:13;35.88;33.73;39.05;;
69613;Laerm;56819;52.382;4.758;2022-07-29T00:52:23;36.66;34.44;41.98;;
69613;Laerm;56819;52.382;4.758;2022-07-29T00:52:35;37.20;35.47;39.08;;
69613;Laerm;56819;52.382;4.758;2022-07-29T00:52:47;36.31;34.06;38.16;;
69613;Laerm;56819;52.382;4.758;2022-07-29T00:52:58;36.03;34.08;39.59;;
69613;Laerm;56819;52.382;4.758;2022-07-29T00:53:10;36.83;34.90;39.33;;
69613;Laerm;56819;52.382;4.758;2022-07-29T00:53:21;39.52;36.55;43.44;;
69613;Laerm;56819;52.382;4.758;2022-07-29T00:53:33;40.80;35.41;45.62;;
69613;Laerm;56819;52.382;4.758;2022-07-29T00:53:44;37.88;35.88;40.39;;
69613;Laerm;56819;52.382;4.758;2022-07-29T00:53:54;41.55;36.63;47.57;;
69613;Laerm;56819;52.382;4.758;2022-07-29T00:54:06;41.32;36.00;48.01;;
69613;Laerm;56819;52.382;4.758;2022-07-29T00:54:16;38.51;36.43;40.05;;
69613;Laerm;56819;52.382;4.758;2022-07-29T00:54:28;38.74;36.27;41.88;;
69613;Laerm;56819;52.382;4.758;2022-07-29T00:54:41;38.21;36.30;41.52;;
69613;Laerm;56819;52.382;4.758;2022-07-29T00:54:51;37.86;36.11;40.01;;
69613;Laerm;56819;52.382;4.758;2022-07-29T00:55:03;37.22;34.96;39.78;;
69613;Laerm;56819;52.382;4.758;2022-07-29T00:55:15;37.10;34.35;42.94;;
69613;Laerm;56819;52.382;4.758;2022-07-29T00:55:25;38.00;35.40;44.27;;
69613;Laerm;56819;52.382;4.758;2022-07-29T00:55:35;36.95;34.88;39.80;;
69613;Laerm;56819;52.382;4.758;2022-07-29T00:55:47;36.89;34.40;39.05;;
69613;Laerm;56819;52.382;4.758;2022-07-29T00:55:57;36.82;34.62;40.33;;
69613;Laerm;56819;52.382;4.758;2022-07-29T00:56:09;36.11;33.75;38.41;;
69613;Laerm;56819;52.382;4.758;2022-07-29T00:56:19;36.86;33.96;40.74;;
69613;Laerm;56819;52.382;4.758;2022-07-29T00:56:30;36.59;34.68;38.55;;
69613;Laerm;56819;52.382;4.758;2022-07-29T00:56:50;38.31;34.82;42.86;;
69613;Laerm;56819;52.382;4.758;2022-07-29T00:57:00;37.28;34.58;40.53;;
69613;Laerm;56819;52.382;4.758;2022-07-29T00:57:11;36.56;34.30;47.33;;
69613;Laerm;56819;52.382;4.758;2022-07-29T00:57:23;37.03;34.36;39.88;;
69613;Laerm;56819;52.382;4.758;2022-07-29T00:57:38;37.86;35.11;43.73;;
69613;Laerm;56819;52.382;4.758;2022-07-29T00:57:49;37.16;34.92;39.14;;
69613;Laerm;56819;52.382;4.758;2022-07-29T00:58:00;38.47;36.24;40.34;;
69613;Laerm;56819;52.382;4.758;2022-07-29T00:58:11;38.22;34.94;41.25;;
69613;Laerm;56819;52.382;4.758;2022-07-29T00:58:24;37.34;34.66;39.76;;
69613;Laerm;56819;52.382;4.758;2022-07-29T00:58:35;37.51;34.99;40.35;;
69613;Laerm;56819;52.382;4.758;2022-07-29T00:58:47;38.49;35.87;42.22;;
69613;Laerm;56819;52.382;4.758;2022-07-29T00:58:59;38.26;35.93;41.25;;
69613;Laerm;56819;52.382;4.758;2022-07-29T00:59:10;40.00;34.77;49.50;;
69613;Laerm;56819;52.382;4.758;2022-07-29T00:59:22;39.71;34.87;49.48;;
69613;Laerm;56819;52.382;4.758;2022-07-29T00:59:32;39.01;36.03;42.76;;
69613;Laerm;56819;52.382;4.758;2022-07-29T00:59:44;39.40;35.16;46.93;;
69613;Laerm;56819;52.382;4.758;2022-07-29T00:59:55;39.84;36.58;44.68;;
69613;Laerm;56819;52.382;4.758;2022-07-29T01:00:07;42.40;37.07;47.44;;
69613;Laerm;56819;52.382;4.758;2022-07-29T01:00:20;38.05;34.94;41.35;;
69613;Laerm;56819;52.382;4.758;2022-07-29T01:00:32;37.51;34.52;41.23;;
69613;Laerm;56819;52.382;4.758;2022-07-29T01:00:42;36.86;34.84;39.54;;
69613;Laerm;56819;52.382;4.758;2022-07-29T01:00:53;37.08;34.98;39.70;;
69613;Laerm;56819;52.382;4.758;2022-07-29T01:01:05;36.46;33.73;38.68;;
69613;Laerm;56819;52.382;4.758;2022-07-29T01:01:17;36.98;34.56;39.74;;
69613;Laerm;56819;52.382;4.758;2022-07-29T01:01:27;37.71;34.18;41.74;;
69613;Laerm;56819;52.382;4.758;2022-07-29T01:01:38;36.42;33.97;39.77;;